Time;durP1;ratioP1;P1;durP2;ratioP2;P2;SDS_P1;SDS_P2;PMS_P1;PMS_P2;Temp;Humidity;BMP_temperature;BMP_pressure;BME280_temperature;BME280_humidity;BME280_pressure;Samples;Min_cycle;Max_cycle;Signal;HPM_P1;HPM_P2
2021/03/11 00:00:04;;;;;;;0.15;0.15;;;;;;;-10.79;86.84;101713.97;1782816;80;21115;-45
2021/03/11 00:03:05;;;;;;;0.10;0.10;;;;;;;-10.84;86.90;101713.80;1790262;80;21667;-44
2021/03/11 00:06:05;;;;;;;0.10;0.10;;;;;;;-10.85;87.00;101713.45;1797515;79;21131;-44
2021/03/11 00:09:06;;;;;;;0.20;0.20;;;;;;;-10.85;87.12;101711.30;1759950;81;21154;-45
2021/03/11 00:12:06;;;;;;;0.10;0.10;;;;;;;-10.85;87.25;101713.45;1745712;80;21133;-44
2021/03/11 00:15:06;;;;;;;0.25;0.25;;;;;;;-10.85;87.29;101716.09;1792791;79;21118;-44
2021/03/11 00:18:07;;;;;;;0.10;0.10;;;;;;;-10.86;87.31;101717.51;1758274;80;21144;-44
2021/03/11 00:21:08;;;;;;;0.10;0.10;;;;;;;-10.87;87.33;101715.84;1809861;79;21147;-43
2021/03/11 00:24:08;;;;;;;0.10;0.10;;;;;;;-10.87;87.35;101723.76;1767879;81;21150;-44
2021/03/11 00:27:09;;;;;;;0.10;0.10;;;;;;;-10.89;87.36;101721.22;1796442;79;21139;-45
2021/03/11 00:30:12;;;;;;;0.10;0.10;;;;;;;-10.90;87.37;101722.18;1730209;81;21162;-44
2021/03/11 00:33:12;;;;;;;1.10;1.10;;;;;;;-10.91;87.42;101716.52;1786223;80;21150;-45
2021/03/11 00:36:13;;;;;;;0.40;0.40;;;;;;;-10.92;87.44;101721.44;1737262;80;21555;-44
2021/03/11 00:39:14;;;;;;;0.20;0.20;;;;;;;-10.92;87.45;101718.80;1807920;79;21142;-44
2021/03/11 00:42:14;;;;;;;0.10;0.10;;;;;;;-10.93;87.47;101718.41;1809496;78;21115;-44
2021/03/11 00:45:15;;;;;;;1.95;1.85;;;;;;;-10.92;87.51;101720.60;1809758;79;21114;-44
2021/03/11 00:48:16;;;;;;;0.10;0.10;;;;;;;-10.93;87.54;101720.22;1797643;79;21095;-44
2021/03/11 00:51:16;;;;;;;0.20;0.20;;;;;;;-10.93;87.58;101722.38;1787501;79;21111;-44
2021/03/11 00:54:19;;;;;;;0.20;0.20;;;;;;;-10.94;87.58;101714.09;1781843;79;29141;-45
2021/03/11 00:57:19;;;;;;;0.30;0.30;;;;;;;-10.93;87.58;101712.30;1788613;79;21174;-44
2021/03/11 01:00:23;;;;;;;0.20;0.20;;;;;;;-10.94;87.62;101709.30;1776438;80;21392;-44
2021/03/11 01:03:26;;;;;;;0.30;0.30;;;;;;;-10.95;87.63;101699.67;1753668;81;21537;-45
2021/03/11 01:06:26;;;;;;;0.10;0.10;;;;;;;-10.95;87.63;101701.86;1792719;79;21127;-44
2021/03/11 01:09:28;;;;;;;1.52;1.52;;;;;;;-10.95;87.62;101704.95;1763003;80;21157;-45
2021/03/11 01:12:29;;;;;;;0.10;0.10;;;;;;;-10.97;87.64;101697.16;1790190;79;21440;-44
2021/03/11 01:15:32;;;;;;;0.10;0.10;;;;;;;-10.97;87.65;101702.44;1786100;79;21142;-44
2021/03/11 01:18:33;;;;;;;0.65;0.65;;;;;;;-10.98;87.66;101690.17;1731197;82;21146;-44
2021/03/11 01:21:33;;;;;;;1.55;1.07;;;;;;;-10.99;87.69;101689.82;1745999;79;21191;-44
2021/03/11 01:24:36;;;;;;;0.10;0.10;;;;;;;-11.00;87.69;101689.47;1799070;79;21162;-44
2021/03/11 01:27:38;;;;;;;0.10;0.10;;;;;;;-11.01;87.69;101683.80;1780782;79;21148;-45
2021/03/11 01:30:39;;;;;;;;;;;;;;;-11.02;87.67;101683.45;1786649;79;21128;-44
2021/03/11 01:33:39;;;;;;;0.47;0.47;;;;;;;-11.04;87.65;101681.39;1809515;79;20536;-44
2021/03/11 01:36:39;;;;;;;0.10;0.10;;;;;;;-11.07;87.66;101692.17;1809723;79;21449;-44
2021/03/11 01:39:41;;;;;;;0.10;0.10;;;;;;;-11.10;87.68;101685.77;1792622;79;21136;-44
2021/03/11 01:42:42;;;;;;;0.20;0.20;;;;;;;-11.12;87.67;101689.02;1802814;79;21151;-47
2021/03/11 01:45:42;;;;;;;0.13;0.13;;;;;;;-11.12;87.66;101689.02;1765585;80;21134;-44
2021/03/11 01:48:43;;;;;;;1.13;0.60;;;;;;;-11.15;87.70;101678.20;1810636;79;21120;-44
2021/03/11 01:51:44;;;;;;;0.10;0.10;;;;;;;-11.15;87.72;101693.17;1793769;79;21144;-44
2021/03/11 01:54:46;;;;;;;;;;;;;;;-11.17;87.73;101685.86;1788071;80;21177;-43
2021/03/11 01:57:47;;;;;;;0.53;0.40;;;;;;;-11.18;87.72;101684.16;1743550;81;20251;-46
2021/03/11 02:00:48;;;;;;;0.10;0.10;;;;;;;-11.19;87.72;101692.55;1787563;79;21533;-44
2021/03/11 02:03:49;;;;;;;0.13;0.13;;;;;;;-11.21;87.75;101697.57;1777907;79;21664;-43
2021/03/11 02:06:50;;;;;;;0.10;0.10;;;;;;;-11.22;87.79;101697.19;1748525;79;21165;-45
2021/03/11 02:09:51;;;;;;;0.25;0.25;;;;;;;-11.21;87.86;101696.25;1776066;80;21182;-44
2021/03/11 02:13:29;;;;;;;0.10;0.10;;;;;;;-11.21;87.81;101702.85;1780275;79;21115;-44
2021/03/11 02:16:37;;;;;;;0.82;0.82;;;;;;;-11.22;87.90;101707.29;1785735;79;21206;-44
2021/03/11 02:20:18;;;;;;;0.10;0.10;;;;;;;-11.22;87.84;101706.42;1785849;79;21114;-44
2021/03/11 02:23:56;;;;;;;0.10;0.10;;;;;;;-11.25;87.81;101699.56;1765075;81;21158;-45
2021/03/11 02:27:26;;;;;;;0.30;0.28;;;;;;;-11.27;87.76;101702.81;1796045;79;21135;-43
2021/03/11 02:30:26;;;;;;;0.10;0.10;;;;;;;-11.30;87.75;101705.19;1710012;82;21159;-44
2021/03/11 02:33:28;;;;;;;0.40;0.40;;;;;;;-11.31;87.75;101703.48;1778536;80;21755;-44
2021/03/11 02:36:28;;;;;;;0.15;0.15;;;;;;;-11.33;87.75;101702.73;1787679;79;21156;-44
2021/03/11 02:39:31;;;;;;;0.10;0.10;;;;;;;-11.34;87.76;101705.02;1760133;80;21195;-44
2021/03/11 02:42:32;;;;;;;0.10;0.10;;;;;;;-11.35;87.76;101711.27;1763536;80;21157;-45
2021/03/11 02:45:38;;;;;;;0.20;0.20;;;;;;;-11.36;87.74;101710.88;1776128;79;21462;-44
2021/03/11 02:48:40;;;;;;;0.20;0.20;;;;;;;-11.38;87.71;101711.45;1787371;79;21115;-44
2021/03/11 02:51:41;;;;;;;;;;;;;;;-11.38;87.69;101706.66;1780636;79;21590;-44
2021/03/11 02:54:41;;;;;;;0.10;0.10;;;;;;;-11.41;87.68;101702.44;1776604;80;20987;-44
2021/03/11 02:57:43;;;;;;;0.10;0.10;;;;;;;-11.42;87.73;101707.81;1792443;79;21149;-44
2021/03/11 03:00:44;;;;;;;0.10;0.10;;;;;;;-11.44;87.72;101710.57;1798408;79;21135;-44
2021/03/11 03:03:44;;;;;;;0.20;0.20;;;;;;;-11.45;87.70;101706.23;1760148;79;21119;-44
2021/03/11 03:06:46;;;;;;;0.20;0.20;;;;;;;-11.46;87.72;101712.47;1798552;79;21103;-44
2021/03/11 03:09:46;;;;;;;0.25;0.25;;;;;;;-11.47;87.77;101718.22;1789070;79;21154;-44
2021/03/11 03:12:46;;;;;;;0.20;0.20;;;;;;;-11.47;87.75;101712.95;1777642;79;21126;-44
2021/03/11 03:15:48;;;;;;;0.53;0.53;;;;;;;-11.47;87.79;101718.22;1787769;79;21142;-44
2021/03/11 03:18:48;;;;;;;0.15;0.15;;;;;;;-11.44;87.82;101728.20;1808798;79;21008;-44
2021/03/11 03:21:50;;;;;;;0.07;0.07;;;;;;;-11.42;87.82;101719.68;1759036;80;21150;-45
2021/03/11 03:24:50;;;;;;;0.50;0.50;;;;;;;-11.41;87.87;101724.86;1792966;80;21158;-44
2021/03/11 03:27:50;;;;;;;0.82;0.82;;;;;;;-11.38;87.88;101723.81;1760646;80;21147;-44
2021/03/11 03:30:51;;;;;;;0.10;0.10;;;;;;;-11.35;87.88;101723.59;1805201;79;21142;-44
2021/03/11 03:33:52;;;;;;;1.32;1.32;;;;;;;-11.33;87.89;101719.89;1777335;79;21138;-44
2021/03/11 03:36:52;;;;;;;0.10;0.10;;;;;;;-11.29;87.92;101721.86;1747744;80;21136;-44
2021/03/11 03:39:53;;;;;;;0.10;0.10;;;;;;;-11.27;87.92;101727.40;1780824;79;21074;-44
2021/03/11 03:43:07;;;;;;;0.05;0.05;;;;;;;-11.24;87.90;101725.50;1763187;81;21189;-45
2021/03/11 03:46:16;;;;;;;0.23;0.23;;;;;;;-11.23;87.85;101724.54;1793270;79;21143;-44
2021/03/11 03:49:18;;;;;;;0.10;0.10;;;;;;;-11.21;87.81;101729.24;1810356;79;21126;-44
2021/03/11 03:52:20;;;;;;;0.08;0.08;;;;;;;-11.21;87.82;101725.28;1775710;80;21162;-44
2021/03/11 03:55:20;;;;;;;0.90;0.40;;;;;;;-11.20;87.85;101728.28;1756761;80;21631;-45
2021/03/11 03:58:20;;;;;;;0.10;0.10;;;;;;;-11.18;87.83;101732.98;1759282;81;21169;-44
2021/03/11 04:01:20;;;;;;;0.10;0.10;;;;;;;-11.18;87.80;101728.54;1762054;80;21206;-44
2021/03/11 04:04:16;;;;;;;0.10;0.10;;;;;;;-11.18;87.73;101730.34;1796760;79;21091;-44
2021/03/11 04:07:18;;;;;;;0.10;0.10;;;;;;;-11.19;87.70;101732.63;1783780;79;21444;-44
2021/03/11 04:10:19;;;;;;;0.13;0.13;;;;;;;-11.21;87.67;101733.20;1791365;79;21182;-44
2021/03/11 04:13:20;;;;;;;3.55;1.27;;;;;;;-11.23;87.66;101733.30;1793149;79;21565;-44
2021/03/11 04:16:22;;;;;;;0.10;0.10;;;;;;;-11.22;87.65;101738.09;1780277;79;21135;-45
2021/03/11 04:19:23;;;;;;;0.20;0.20;;;;;;;-11.24;87.63;101739.54;1767570;80;21596;-44
2021/03/11 04:22:24;;;;;;;1.62;0.88;;;;;;;-11.24;87.66;101737.38;1766975;79;21599;-43
2021/03/11 04:25:24;;;;;;;0.10;0.10;;;;;;;-11.24;87.68;101741.34;1759676;79;21131;-44
2021/03/11 04:28:25;;;;;;;0.10;0.10;;;;;;;-11.23;87.69;101741.21;1771971;79;21104;-44
2021/03/11 04:31:25;;;;;;;0.10;0.10;;;;;;;-11.22;87.69;101734.13;1795183;79;21106;-44
2021/03/11 04:34:26;;;;;;;0.45;0.45;;;;;;;-11.17;87.72;101741.28;1804021;79;21111;-45
2021/03/11 04:37:27;;;;;;;0.10;0.10;;;;;;;-11.15;87.73;101731.44;1763025;81;21130;-44
2021/03/11 04:40:27;;;;;;;0.68;0.53;;;;;;;-11.10;87.77;101734.59;1804192;79;21154;-44
2021/03/11 04:43:28;;;;;;;1.12;1.12;;;;;;;-11.04;87.84;101736.83;1780648;79;21470;-44
2021/03/11 04:46:28;;;;;;;0.10;0.10;;;;;;;-10.98;87.89;101742.98;1754487;80;21169;-44
2021/03/11 04:49:33;;;;;;;0.10;0.10;;;;;;;-10.92;87.93;101743.88;1755890;80;21130;-45
2021/03/11 04:52:33;;;;;;;0.10;0.10;;;;;;;-10.86;87.98;101748.72;1769635;80;21134;-44
2021/03/11 04:55:36;;;;;;;1.15;1.12;;;;;;;-10.76;88.06;101745.44;1758052;79;22069;-43
2021/03/11 04:58:36;;;;;;;0.10;0.10;;;;;;;-10.66;88.16;101748.62;1738162;81;21177;-43
2021/03/11 05:01:41;;;;;;;0.20;0.20;;;;;;;-10.55;88.23;101754.47;1809174;79;21162;-44
2021/03/11 05:04:41;;;;;;;0.37;0.37;;;;;;;-10.43;88.35;101748.30;1807503;79;21589;-44
2021/03/11 05:07:41;;;;;;;0.37;0.37;;;;;;;-10.30;88.44;101755.34;1808193;79;21127;-44
2021/03/11 05:10:44;;;;;;;0.10;0.10;;;;;;;-10.16;88.56;101755.15;1806331;79;21163;-44
2021/03/11 05:13:49;;;;;;;0.08;0.08;;;;;;;-10.02;88.63;101764.20;1737129;82;21154;-45
2021/03/11 05:16:50;;;;;;;0.10;0.10;;;;;;;-9.88;88.65;101771.12;1781737;79;21131;-44
2021/03/11 05:19:50;;;;;;;3.83;1.85;;;;;;;-9.74;88.73;101774.08;1757204;80;21118;-44
2021/03/11 05:22:51;;;;;;;0.17;0.17;;;;;;;-9.57;88.88;101777.62;1756071;81;21139;-44
2021/03/11 05:25:52;;;;;;;0.45;0.45;;;;;;;-9.40;88.93;101765.73;1791910;78;21166;-44
2021/03/11 05:28:53;;;;;;;0.20;0.20;;;;;;;-9.23;89.07;101756.50;1808189;79;21163;-44
2021/03/11 05:31:53;;;;;;;0.10;0.10;;;;;;;-9.05;89.13;101763.97;1745455;81;21150;-44
2021/03/11 05:34:54;;;;;;;5.60;1.00;;;;;;;-8.86;89.20;101760.25;1751887;81;21707;-44
2021/03/11 05:37:56;;;;;;;1.72;1.57;;;;;;;-8.70;89.23;101763.88;1793352;78;21104;-44
2021/03/11 05:40:59;;;;;;;1.65;1.55;;;;;;;-8.50;89.30;101759.63;1796600;79;21182;-44
2021/03/11 05:44:01;;;;;;;0.10;0.10;;;;;;;-8.30;89.38;101761.97;1821031;78;21126;-46
2021/03/11 05:47:02;;;;;;;3.05;1.12;;;;;;;-8.09;89.43;101754.05;1775815;79;21573;-44
2021/03/11 05:50:04;;;;;;;0.10;0.10;;;;;;;-7.88;89.54;101756.27;1768811;80;21133;-45
2021/03/11 05:53:05;;;;;;;0.13;0.13;;;;;;;-7.64;89.59;101761.36;1774120;79;21126;-44
2021/03/11 05:56:05;;;;;;;0.68;0.68;;;;;;;-7.39;89.74;101764.11;1822543;78;21131;-44
2021/03/11 05:59:08;;;;;;;0.33;0.33;;;;;;;-7.16;89.64;101774.09;1772141;80;21157;-44
2021/03/11 06:02:13;;;;;;;0.25;0.25;;;;;;;-6.88;89.75;101770.38;1809869;78;21150;-44
2021/03/11 06:05:15;;;;;;;0.17;0.17;;;;;;;-6.33;89.91;101778.84;1795511;78;21444;-44
2021/03/11 06:08:15;;;;;;;1.25;1.15;;;;;;;-6.33;89.91;101778.84;1798760;78;21391;-44
2021/03/11 06:11:16;;;;;;;0.88;0.40;;;;;;;-6.06;89.70;101781.33;1800199;78;21221;-44
2021/03/11 06:14:18;;;;;;;0.42;0.42;;;;;;;-5.77;89.65;101784.48;1772666;78;21237;-44
2021/03/11 06:17:19;;;;;;;0.70;0.70;;;;;;;-5.55;89.62;101773.54;1770981;81;21158;-44
2021/03/11 06:20:19;;;;;;;0.20;0.20;;;;;;;-5.26;89.28;101780.17;1772728;80;21588;-44
2021/03/11 06:23:21;;;;;;;0.10;0.10;;;;;;;-5.03;89.06;101785.16;1771565;80;21188;-44
2021/03/11 06:26:21;;;;;;;0.30;0.30;;;;;;;-4.77;88.83;101793.37;1821534;78;21178;-44
2021/03/11 06:29:24;;;;;;;0.15;0.15;;;;;;;-4.54;88.67;101792.50;1770383;80;21138;-44
2021/03/11 06:32:24;;;;;;;0.40;0.40;;;;;;;-4.30;88.32;101796.44;1810193;77;21111;-46
2021/03/11 06:35:26;;;;;;;0.25;0.25;;;;;;;-4.07;87.91;101793.72;1804533;78;21691;-45
2021/03/11 06:38:35;;;;;;;3.15;0.62;;;;;;;-3.84;87.32;101793.27;1767671;80;21409;-44
2021/03/11 06:41:51;;;;;;;0.10;0.10;;;;;;;-3.62;87.13;101787.97;1783896;79;21132;-45
2021/03/11 06:44:51;;;;;;;0.35;0.35;;;;;;;-3.37;86.71;101793.02;1771028;80;21141;-44
2021/03/11 06:47:54;;;;;;;0.42;0.35;;;;;;;-3.13;86.03;101804.41;1773709;79;21148;-45
2021/03/11 06:50:55;;;;;;;0.10;0.10;;;;;;;-2.91;85.40;101798.53;1757227;81;21445;-45
2021/03/11 06:54:01;;;;;;;2.30;0.75;;;;;;;-2.71;84.86;101800.99;1731036;81;21127;-44
2021/03/11 06:57:02;;;;;;;0.10;0.10;;;;;;;-2.48;84.29;101802.60;1778412;79;21179;-46
2021/03/11 07:00:09;;;;;;;0.30;0.30;;;;;;;-2.30;83.03;101804.70;1794236;79;21142;-44
2021/03/11 07:03:10;;;;;;;0.10;0.10;;;;;;;-2.13;82.12;101804.23;1798431;79;21130;-44
2021/03/11 07:06:11;;;;;;;0.08;0.08;;;;;;;-1.92;81.47;101803.80;1740560;81;22022;-45
2021/03/11 07:09:13;;;;;;;0.10;0.10;;;;;;;-1.75;80.30;101802.83;1780457;79;21130;-46
2021/03/11 07:12:14;;;;;;;0.00;0.00;;;;;;;-1.55;79.66;101797.16;1801990;79;21174;-45
2021/03/11 07:15:19;;;;;;;1.35;0.72;;;;;;;-1.38;77.63;101800.19;1758186;79;21118;-45
2021/03/11 07:18:29;;;;;;;0.00;0.00;;;;;;;-1.24;76.79;101800.50;1797685;79;21613;-44
2021/03/11 07:21:54;;;;;;;0.37;0.33;;;;;;;-1.12;75.06;101793.28;1803472;79;21142;-44
2021/03/11 07:24:53;;;;;;;0.10;0.10;;;;;;;-0.95;74.60;101796.78;1796398;79;21536;-44
2021/03/11 07:27:54;;;;;;;0.82;0.82;;;;;;;-0.76;72.84;101800.11;1762348;80;21489;-45
2021/03/11 07:30:57;;;;;;;0.10;0.10;;;;;;;-0.59;71.38;101803.56;1803977;79;21120;-44
2021/03/11 07:33:58;;;;;;;0.00;0.00;;;;;;;-0.45;70.81;101802.34;1806987;79;21111;-44
2021/03/11 07:37:03;;;;;;;0.13;0.13;;;;;;;-0.28;68.66;101805.80;1744129;81;21194;-44
2021/03/11 07:40:06;;;;;;;0.42;0.30;;;;;;;-0.31;65.50;101808.01;1804184;79;21142;-44
2021/03/11 07:43:07;;;;;;;0.10;0.10;;;;;;;-0.31;64.80;101804.81;1755336;81;21147;-45
2021/03/11 07:46:09;;;;;;;0.00;0.00;;;;;;;-0.26;64.04;101802.95;1793093;79;21099;-45
2021/03/11 07:49:10;;;;;;;0.10;0.10;;;;;;;-0.23;61.64;101803.94;1777961;80;21162;-44
2021/03/11 07:52:13;;;;;;;0.20;0.20;;;;;;;-0.21;61.31;101809.98;1805004;79;21122;-44
2021/03/11 07:55:17;;;;;;;0.00;0.00;;;;;;;-0.15;61.93;101802.55;1810001;79;21155;-44
2021/03/11 07:58:20;;;;;;;0.00;0.00;;;;;;;-0.07;60.22;101808.41;1798630;79;21170;-44
2021/03/11 08:01:20;;;;;;;0.10;0.10;;;;;;;-0.08;58.99;101803.52;1793683;79;21118;-44
2021/03/11 08:04:24;;;;;;;0.33;0.33;;;;;;;-0.13;58.97;101800.52;1775533;79;21132;-44
2021/03/11 08:07:32;;;;;;;0.10;0.10;;;;;;;-0.09;58.48;101811.27;1809769;79;21162;-45
2021/03/11 08:10:32;;;;;;;0.10;0.10;;;;;;;0.02;57.88;101803.81;1809908;78;21494;-48
2021/03/11 08:13:45;;;;;;;0.00;0.00;;;;;;;0.02;56.79;101811.36;1784327;79;21144;-48
2021/03/11 08:16:46;;;;;;;;;;;;;;;-0.02;56.48;101817.61;1788645;79;21143;-45
2021/03/11 08:19:53;;;;;;;0.55;0.55;;;;;;;-0.02;56.13;101816.78;1796001;79;20283;-45
2021/03/11 08:23:03;;;;;;;0.05;0.05;;;;;;;-0.06;53.85;101814.94;1795955;79;21396;-44
2021/03/11 08:26:04;;;;;;;0.10;0.10;;;;;;;-0.09;55.58;101816.64;1780366;79;21122;-44
2021/03/11 08:29:05;;;;;;;0.10;0.10;;;;;;;0.05;56.16;101807.00;1786113;78;21426;-45
2021/03/11 08:32:06;;;;;;;0.08;0.08;;;;;;;0.13;54.87;101806.95;1789268;79;21163;-45
2021/03/11 08:35:37;;;;;;;0.30;0.30;;;;;;;0.18;53.63;101814.48;1809754;79;21179;-46
2021/03/11 08:38:45;;;;;;;0.00;0.00;;;;;;;0.24;53.96;101805.69;1798843;79;21166;-46
2021/03/11 08:41:46;;;;;;;0.03;0.03;;;;;;;0.43;52.53;101801.70;1767101;81;21166;-44
2021/03/11 08:44:50;;;;;;;0.08;0.08;;;;;;;0.55;52.93;101802.95;1810306;79;21123;-45
2021/03/11 08:48:24;;;;;;;0.10;0.10;;;;;;;0.71;52.04;101809.22;1756274;80;21222;-45
2021/03/11 08:51:33;;;;;;;0.55;0.55;;;;;;;0.81;51.48;101807.11;1807069;79;21143;-45
2021/03/11 08:54:36;;;;;;;0.30;0.30;;;;;;;0.80;51.51;101802.23;1794143;79;21158;-45
2021/03/11 08:57:49;;;;;;;0.70;0.65;;;;;;;0.91;49.62;101812.23;1794030;79;21108;-45
2021/03/11 09:01:10;;;;;;;0.00;0.00;;;;;;;0.93;51.12;101802.13;1784989;80;21097;-45
2021/03/11 09:04:31;;;;;;;0.05;0.05;;;;;;;0.99;51.06;101802.25;1777738;80;21716;-45
2021/03/11 09:07:40;;;;;;;0.20;0.20;;;;;;;0.88;49.34;101808.58;1776998;79;21514;-44
2021/03/11 09:10:40;;;;;;;0.00;0.00;;;;;;;0.74;49.84;101797.60;1756868;80;21141;-45
2021/03/11 09:13:40;;;;;;;0.13;0.13;;;;;;;0.65;48.63;101801.37;1782443;80;21162;-44
2021/03/11 09:16:41;;;;;;;0.10;0.10;;;;;;;0.57;49.02;101800.93;1782256;80;21609;-48
2021/03/11 09:19:49;;;;;;;0.00;0.00;;;;;;;0.53;49.07;101795.57;1782716;80;21482;-48
2021/03/11 09:22:54;;;;;;;0.10;0.10;;;;;;;0.56;49.10;101797.06;1782964;80;21147;-48
2021/03/11 09:25:55;;;;;;;0.10;0.10;;;;;;;0.59;49.04;101797.55;1782837;80;21146;-48
2021/03/11 09:28:55;;;;;;;0.13;0.13;;;;;;;0.63;49.18;101789.95;1783581;80;21139;-48
2021/03/11 09:31:56;;;;;;;0.10;0.10;;;;;;;0.60;48.77;101788.97;1782186;80;21453;-48
2021/03/11 09:35:01;;;;;;;0.00;0.00;;;;;;;0.58;48.50;101793.69;1793346;80;21134;-48
2021/03/11 09:38:05;;;;;;;0.05;0.05;;;;;;;0.59;48.72;101787.28;1796411;79;21150;-48
2021/03/11 09:41:06;;;;;;;0.10;0.10;;;;;;;0.63;48.02;101784.56;1786328;80;21129;-49
2021/03/11 09:44:11;;;;;;;0.15;0.15;;;;;;;0.63;47.67;101787.26;1779176;79;21162;-48
2021/03/11 09:47:11;;;;;;;0.75;0.75;;;;;;;0.62;47.56;101786.43;1788853;79;21167;-46
2021/03/11 09:50:18;;;;;;;0.10;0.10;;;;;;;0.55;47.37;101797.58;1794070;79;21164;-48
2021/03/11 09:53:18;;;;;;;0.40;0.40;;;;;;;0.41;46.79;101789.77;1798234;79;21111;-48
2021/03/11 09:56:38;;;;;;;0.10;0.10;;;;;;;0.34;48.19;101779.40;1804843;79;21139;-48
2021/03/11 09:59:38;;;;;;;0.03;0.03;;;;;;;0.40;48.12;101777.35;1793808;79;21167;-48
2021/03/11 10:02:53;;;;;;;0.20;0.20;;;;;;;0.39;46.11;101774.31;1767329;80;21131;-48
2021/03/11 10:06:00;;;;;;;0.10;0.10;;;;;;;0.39;47.81;101777.01;1781866;79;22053;-44
2021/03/11 10:09:05;;;;;;;0.10;0.10;;;;;;;0.44;47.24;101776.47;1807696;79;21114;-45
2021/03/11 10:12:07;;;;;;;2.52;0.33;;;;;;;0.53;47.57;101774.56;1788574;79;21142;-45
2021/03/11 10:15:14;;;;;;;0.10;0.10;;;;;;;0.59;47.27;101772.00;1778077;80;21208;-46
2021/03/11 10:18:15;;;;;;;0.20;0.20;;;;;;;0.66;47.31;101772.09;1766285;81;21351;-45
2021/03/11 10:21:16;;;;;;;0.00;0.00;;;;;;;0.73;47.56;101769.00;1812400;79;21196;-46
2021/03/11 10:24:17;;;;;;;0.00;0.00;;;;;;;0.81;46.74;101764.88;1788077;80;21538;-45
2021/03/11 10:27:35;;;;;;;0.00;0.00;;;;;;;0.85;46.39;101771.58;1812514;79;21590;-45
2021/03/11 10:30:37;;;;;;;0.00;0.00;;;;;;;0.77;46.86;101765.45;1792826;80;21119;-47
2021/03/11 10:33:38;;;;;;;0.10;0.10;;;;;;;0.78;44.86;101760.39;1761563;81;21166;-44
2021/03/11 10:36:39;;;;;;;0.10;0.10;;;;;;;0.68;45.37;101761.98;1775260;80;21200;-45
2021/03/11 10:39:40;;;;;;;0.05;0.05;;;;;;;0.61;44.93;101755.66;1777873;80;21114;-46
2021/03/11 10:42:58;;;;;;;0.10;0.10;;;;;;;0.63;46.44;101750.94;1783959;79;21680;-45
2021/03/11 10:45:59;;;;;;;0.20;0.20;;;;;;;0.75;44.53;101750.83;1767497;81;21118;-45
2021/03/11 10:49:00;;;;;;;0.00;0.00;;;;;;;0.76;43.14;101743.59;1812335;79;21127;-45
2021/03/11 10:52:07;;;;;;;0.03;0.03;;;;;;;0.65;43.95;101748.91;1781492;79;21157;-46
2021/03/11 10:55:28;;;;;;;0.30;0.30;;;;;;;0.67;44.91;101737.95;1761962;81;21190;-45
2021/03/11 10:58:32;;;;;;;0.10;0.10;;;;;;;0.68;45.31;101743.67;1809982;79;21135;-46
2021/03/11 11:01:35;;;;;;;0.10;0.10;;;;;;;0.72;45.49;101744.47;1796336;79;21123;-46
2021/03/11 11:04:36;;;;;;;0.10;0.10;;;;;;;0.78;44.88;101749.11;1778030;80;21243;-46
2021/03/11 11:07:38;;;;;;;0.10;0.10;;;;;;;0.82;43.99;101754.98;1777856;79;21155;-46
2021/03/11 11:10:39;;;;;;;0.20;0.20;;;;;;;0.81;44.17;101742.01;1780135;79;21115;-45
2021/03/11 11:13:40;;;;;;;0.00;0.00;;;;;;;0.84;44.35;101733.59;1809921;79;21107;-46
2021/03/11 11:16:40;;;;;;;0.20;0.20;;;;;;;0.84;43.19;101733.59;1809737;79;21200;-47
2021/03/11 11:19:41;;;;;;;0.20;0.20;;;;;;;0.80;43.44;101733.62;1809517;79;21166;-46
2021/03/11 11:22:41;;;;;;;0.00;0.00;;;;;;;0.85;42.15;101729.87;1781233;79;21155;-47
2021/03/11 11:25:42;;;;;;;0.10;0.10;;;;;;;0.75;42.39;101723.92;1782991;79;21118;-45
2021/03/11 11:28:42;;;;;;;0.10;0.10;;;;;;;0.67;41.42;101724.49;1812347;78;21442;-46
2021/03/11 11:31:42;;;;;;;0.30;0.30;;;;;;;0.66;40.63;101733.08;1787409;79;21139;-45
2021/03/11 11:34:44;;;;;;;0.50;0.50;;;;;;;0.62;43.47;101732.63;1803563;79;21116;-47
2021/03/11 11:37:45;;;;;;;0.90;0.80;;;;;;;0.63;41.74;101724.03;1808182;78;21643;-48
2021/03/11 11:40:45;;;;;;;0.10;0.10;;;;;;;0.61;44.06;101728.76;1801276;79;21127;-48
2021/03/11 11:43:47;;;;;;;0.10;0.10;;;;;;;0.55;39.40;101722.78;1782926;78;21545;-48
2021/03/11 11:46:48;;;;;;;0.85;0.85;;;;;;;0.40;40.71;101719.53;1775944;80;21507;-48
2021/03/11 11:49:49;;;;;;;0.10;0.10;;;;;;;0.33;42.46;101717.75;1775885;79;21568;-48
2021/03/11 11:52:49;;;;;;;8.03;0.88;;;;;;;0.27;43.77;101716.59;1775695;79;21142;-48
2021/03/11 11:55:49;;;;;;;1.15;0.45;;;;;;;0.24;43.15;101718.31;1769942;79;21014;-48
2021/03/11 11:58:50;;;;;;;0.00;0.00;;;;;;;0.25;43.22;101714.63;1777303;80;21150;-48
2021/03/11 12:01:51;;;;;;;0.10;0.10;;;;;;;0.24;44.26;101714.28;1773920;79;21135;-49
2021/03/11 12:04:53;;;;;;;0.40;0.40;;;;;;;0.22;44.69;101705.55;1778171;80;21615;-48
2021/03/11 12:07:55;;;;;;;0.20;0.20;;;;;;;0.15;44.53;101707.31;1773373;80;21500;-48
2021/03/11 12:11:00;;;;;;;0.00;0.00;;;;;;;0.14;44.68;101705.11;1774587;79;21134;-48
2021/03/11 12:14:00;;;;;;;0.10;0.10;;;;;;;0.12;44.51;101703.11;1767033;80;21209;-48
2021/03/11 12:17:01;;;;;;;0.08;0.08;;;;;;;0.17;45.83;101701.23;1776525;80;21634;-48
2021/03/11 12:20:03;;;;;;;0.10;0.10;;;;;;;0.17;44.35;101705.26;1775348;80;21149;-48
2021/03/11 12:23:04;;;;;;;0.30;0.30;;;;;;;0.08;45.49;101698.30;1743173;80;21142;-48
2021/03/11 12:26:04;;;;;;;0.10;0.10;;;;;;;0.02;45.84;101701.69;1717120;82;21171;-49
2021/03/11 12:29:05;;;;;;;0.10;0.10;;;;;;;-0.04;45.94;101690.64;1752754;81;21197;-48
2021/03/11 12:32:05;;;;;;;0.10;0.10;;;;;;;-0.09;46.19;101690.34;1772192;80;21124;-48
2021/03/11 12:35:06;;;;;;;0.15;0.15;;;;;;;-0.13;46.71;101695.73;1781217;80;21137;-48
2021/03/11 12:38:06;;;;;;;0.20;0.20;;;;;;;-0.10;46.58;101688.69;1741196;81;21150;-48
2021/03/11 12:41:07;;;;;;;0.17;0.17;;;;;;;-0.13;47.03;101683.64;1769110;80;21115;-48
2021/03/11 12:44:07;;;;;;;0.20;0.20;;;;;;;-0.13;46.61;101683.64;1791780;78;21092;-48
2021/03/11 12:47:08;;;;;;;1.10;0.17;;;;;;;-0.05;47.71;101686.30;1789568;79;22384;-48
2021/03/11 12:50:11;;;;;;;0.10;0.10;;;;;;;0.03;48.34;101692.62;1806709;79;21111;-48
2021/03/11 12:53:12;;;;;;;;;;;;;;;0.04;48.26;101688.39;1781202;79;21126;-48
2021/03/11 12:56:12;;;;;;;0.10;0.10;;;;;;;0.02;48.22;101686.39;1776003;80;20250;-48
2021/03/11 12:59:13;;;;;;;0.20;0.20;;;;;;;-0.05;48.64;101687.64;1766538;79;21158;-48
2021/03/11 13:02:13;;;;;;;0.10;0.10;;;;;;;-0.06;48.44;101689.98;1780636;80;21142;-48
2021/03/11 13:05:14;;;;;;;0.15;0.15;;;;;;;-0.09;48.36;101683.63;1739864;81;21529;-49
2021/03/11 13:08:15;;;;;;;0.10;0.10;;;;;;;-0.12;48.89;101694.73;1770150;79;21158;-48
2021/03/11 13:11:17;;;;;;;0.10;0.10;;;;;;;-0.22;48.40;101686.08;1760741;79;21130;-48
2021/03/11 13:14:18;;;;;;;0.57;0.37;;;;;;;-0.28;48.49;101680.89;1779103;79;21682;-48
2021/03/11 13:17:19;;;;;;;0.10;0.10;;;;;;;-0.31;49.90;101679.08;1777466;79;21446;-48
2021/03/11 13:20:21;;;;;;;0.10;0.10;;;;;;;-0.32;49.82;101689.47;1777973;80;21268;-48
2021/03/11 13:23:21;;;;;;;0.20;0.20;;;;;;;-0.37;49.15;101682.45;1783000;79;21201;-48
2021/03/11 13:26:22;;;;;;;0.80;0.80;;;;;;;-0.38;49.72;101680.28;1787075;79;21134;-48
2021/03/11 13:29:22;;;;;;;0.20;0.20;;;;;;;-0.38;48.96;101682.14;1790394;79;21939;-48
2021/03/11 13:32:23;;;;;;;0.10;0.10;;;;;;;-0.37;49.00;101681.97;1769488;79;21146;-48
2021/03/11 13:35:23;;;;;;;1.20;0.40;;;;;;;-0.44;49.13;101676.47;1749473;81;21161;-48
2021/03/11 13:38:25;;;;;;;0.10;0.10;;;;;;;-0.47;49.69;101678.17;1767243;79;21170;-48
2021/03/11 13:41:25;;;;;;;0.23;0.23;;;;;;;-0.52;49.72;101668.46;1783170;79;21163;-48
2021/03/11 13:44:26;;;;;;;0.10;0.10;;;;;;;-0.56;50.39;101664.45;1751003;81;21012;-48
2021/03/11 13:47:26;;;;;;;2.52;0.57;;;;;;;-0.60;50.83;101664.97;1726705;81;21171;-48
2021/03/11 13:50:30;;;;;;;0.10;0.10;;;;;;;-0.68;51.50;101653.26;1727374;82;21412;-48
2021/03/11 13:53:30;;;;;;;0.03;0.03;;;;;;;-0.72;52.26;101655.13;1740036;81;21192;-47
2021/03/11 13:56:30;;;;;;;0.65;0.65;;;;;;;-0.75;52.58;101650.11;1755858;81;21130;-48
2021/03/11 13:59:31;;;;;;;0.45;0.45;;;;;;;-0.81;51.81;101652.17;1731721;81;21166;-48
2021/03/11 14:02:32;;;;;;;0.10;0.10;;;;;;;-0.84;51.60;101652.50;1742178;81;21204;-48
2021/03/11 14:05:33;;;;;;;0.95;0.95;;;;;;;-0.91;52.41;101644.33;1757213;81;21154;-48
2021/03/11 14:08:35;;;;;;;0.90;0.72;;;;;;;-0.96;52.42;101650.22;1749454;81;21163;-48
2021/03/11 14:11:36;;;;;;;0.10;0.10;;;;;;;-1.00;52.38;101635.47;1747523;81;21143;-48